Watertown Regional Airport
KATY : rendu visible

Aérodrome :











RETROUVEZ-NOUS SUR...

 
LOGIN :

S'inscrire | Disclaimer

   EN    FR    IT 

 









Légende :    VFR   VFR Marginal   IFR   IFR Intensif   IFR Très Intensif
Visi : 
Plafond : 
>= 8 km
>= 3000ft
5 à 8 km
1000 à 3000 ft
1500m à 5 km
500 à 1000 ft
800 à 1500m
200 à 500 ft
< 800m
< 200 ft
Symboles :   Orages  Brouillard  Fortes neiges  Fortes précipitations  Vent > 20 kt







- Altitude de l'aérodrome : 1749 ft
- Code IATA : ATY


KATY - Watertown Regional

DERNIER METAR :
  • 240453Z AUTO 08007KT 10SM FEW110 09/07 A3001 RMK AO2 PRESFR SLP168 T00940067

METARs EXPIRÉS :
  • 240353Z AUTO 10006KT 10SM SCT110 09/07 A3005 RMK AO2 SLP182 T00940067
  • 240253Z AUTO 09006KT 10SM FEW025 09/07 A3004 RMK AO2 SLP178 T00940067 55006

TAF KATY
Valide du 24 à 00h jusqu'au 25 à 00h UTC


232332Z 2400/2424 12005KT P6SM BKN035
FM240900 11010KT 5SM SHRA BR OVC010
FM241400 15015KT P6SM OVC006
FM241700 21018G27KT P6SM BKN012
FM242000 22024G33KT P6SM SCT080
FIR KZMP / Amérique du Nord



MET'MAP, la Météo Aéronautique d'un coup d'oeil ! - Copyright ORBIFLY Décembre 2007 - Disclaimer

ORBIFLY MET'MAP TEAM :

Programmation & Développement : Alexandra Zaïnal
Conception & Développement : Baudouin d'Aumeries
Co-Programmation & Développement : Marc-Olivier Méhu
Soutien technique & logistique : Manuel Goepfert

Contact : metmap@orbifly.com




SOURCES & CREDITS :

   NOAA       Earth
Advisory